sensor_id;sensor_type;location;lat;lon;timestamp;P1;durP1;ratioP1;P2;durP2;ratioP2
80891;SDS011;70343;51.530;5.050;2023-12-28T00:00:00;3.83;;;2.67;;
80891;SDS011;70343;51.530;5.050;2023-12-28T00:02:29;3.17;;;2.22;;
80891;SDS011;70343;51.530;5.050;2023-12-28T00:04:54;3.40;;;2.50;;
80891;SDS011;70343;51.530;5.050;2023-12-28T00:07:21;2.45;;;1.90;;
80891;SDS011;70343;51.530;5.050;2023-12-28T00:09:46;5.13;;;1.70;;
80891;SDS011;70343;51.530;5.050;2023-12-28T00:12:12;8.73;;;2.45;;
80891;SDS011;70343;51.530;5.050;2023-12-28T00:14:37;2.65;;;2.10;;
80891;SDS011;70343;51.530;5.050;2023-12-28T00:17:03;4.07;;;2.83;;
80891;SDS011;70343;51.530;5.050;2023-12-28T00:19:28;4.63;;;2.03;;
80891;SDS011;70343;51.530;5.050;2023-12-28T00:21:54;3.00;;;1.90;;
80891;SDS011;70343;51.530;5.050;2023-12-28T00:24:19;3.72;;;1.90;;
80891;SDS011;70343;51.530;5.050;2023-12-28T00:26:47;5.25;;;2.88;;
80891;SDS011;70343;51.530;5.050;2023-12-28T00:29:12;3.63;;;1.77;;
80891;SDS011;70343;51.530;5.050;2023-12-28T00:31:38;4.13;;;2.35;;
80891;SDS011;70343;51.530;5.050;2023-12-28T00:34:03;3.22;;;2.38;;
80891;SDS011;70343;51.530;5.050;2023-12-28T00:36:29;3.25;;;2.05;;
80891;SDS011;70343;51.530;5.050;2023-12-28T00:38:54;5.30;;;2.47;;
80891;SDS011;70343;51.530;5.050;2023-12-28T00:41:19;3.25;;;2.15;;
80891;SDS011;70343;51.530;5.050;2023-12-28T00:43:45;4.07;;;1.88;;
80891;SDS011;70343;51.530;5.050;2023-12-28T00:46:11;3.90;;;2.05;;
80891;SDS011;70343;51.530;5.050;2023-12-28T00:48:36;4.70;;;2.38;;
80891;SDS011;70343;51.530;5.050;2023-12-28T00:51:02;3.75;;;2.38;;
80891;SDS011;70343;51.530;5.050;2023-12-28T00:53:27;2.92;;;2.10;;
80891;SDS011;70343;51.530;5.050;2023-12-28T00:55:54;3.17;;;2.33;;
80891;SDS011;70343;51.530;5.050;2023-12-28T00:58:21;4.07;;;2.45;;
80891;SDS011;70343;51.530;5.050;2023-12-28T01:00:47;3.53;;;2.28;;
80891;SDS011;70343;51.530;5.050;2023-12-28T01:03:12;4.57;;;2.03;;
80891;SDS011;70343;51.530;5.050;2023-12-28T01:05:38;3.97;;;2.03;;
80891;SDS011;70343;51.530;5.050;2023-12-28T01:08:04;2.97;;;2.50;;
80891;SDS011;70343;51.530;5.050;2023-12-28T01:10:29;3.28;;;2.38;;
80891;SDS011;70343;51.530;5.050;2023-12-28T01:12:55;4.72;;;2.33;;
80891;SDS011;70343;51.530;5.050;2023-12-28T01:15:20;5.70;;;2.80;;
80891;SDS011;70343;51.530;5.050;2023-12-28T01:17:46;6.15;;;2.80;;
80891;SDS011;70343;51.530;5.050;2023-12-28T01:20:11;3.83;;;2.30;;
80891;SDS011;70343;51.530;5.050;2023-12-28T01:22:37;4.30;;;2.42;;
80891;SDS011;70343;51.530;5.050;2023-12-28T01:25:03;4.85;;;2.35;;
80891;SDS011;70343;51.530;5.050;2023-12-28T01:27:29;3.78;;;2.17;;
80891;SDS011;70343;51.530;5.050;2023-12-28T01:29:54;4.38;;;2.00;;
80891;SDS011;70343;51.530;5.050;2023-12-28T01:32:20;4.25;;;2.00;;
80891;SDS011;70343;51.530;5.050;2023-12-28T01:34:45;3.67;;;2.65;;
80891;SDS011;70343;51.530;5.050;2023-12-28T01:37:11;6.82;;;2.50;;
80891;SDS011;70343;51.530;5.050;2023-12-28T01:39:36;8.25;;;2.47;;
80891;SDS011;70343;51.530;5.050;2023-12-28T01:42:02;4.55;;;2.50;;
80891;SDS011;70343;51.530;5.050;2023-12-28T01:44:29;4.00;;;2.75;;
80891;SDS011;70343;51.530;5.050;2023-12-28T01:46:55;5.72;;;2.70;;
80891;SDS011;70343;51.530;5.050;2023-12-28T01:49:21;5.13;;;2.08;;
80891;SDS011;70343;51.530;5.050;2023-12-28T01:51:47;4.47;;;2.05;;
80891;SDS011;70343;51.530;5.050;2023-12-28T01:54:14;4.10;;;1.80;;
80891;SDS011;70343;51.530;5.050;2023-12-28T01:56:39;4.95;;;2.15;;
80891;SDS011;70343;51.530;5.050;2023-12-28T01:59:06;5.57;;;2.38;;
80891;SDS011;70343;51.530;5.050;2023-12-28T02:01:31;6.25;;;2.38;;
80891;SDS011;70343;51.530;5.050;2023-12-28T02:03:57;5.07;;;2.38;;
80891;SDS011;70343;51.530;5.050;2023-12-28T02:06:23;5.13;;;2.53;;
80891;SDS011;70343;51.530;5.050;2023-12-28T02:08:49;2.80;;;2.17;;
80891;SDS011;70343;51.530;5.050;2023-12-28T02:11:15;5.70;;;2.35;;
80891;SDS011;70343;51.530;5.050;2023-12-28T02:13:41;3.00;;;2.30;;
80891;SDS011;70343;51.530;5.050;2023-12-28T02:16:09;4.55;;;2.65;;
80891;SDS011;70343;51.530;5.050;2023-12-28T02:18:44;4.22;;;2.20;;
80891;SDS011;70343;51.530;5.050;2023-12-28T02:21:14;4.57;;;2.17;;
80891;SDS011;70343;51.530;5.050;2023-12-28T02:23:48;3.00;;;1.77;;
80891;SDS011;70343;51.530;5.050;2023-12-28T02:26:14;6.18;;;2.58;;
80891;SDS011;70343;51.530;5.050;2023-12-28T02:28:41;2.90;;;2.03;;
80891;SDS011;70343;51.530;5.050;2023-12-28T02:31:07;3.90;;;1.98;;
80891;SDS011;70343;51.530;5.050;2023-12-28T02:33:36;3.83;;;2.33;;
80891;SDS011;70343;51.530;5.050;2023-12-28T02:36:09;7.32;;;2.35;;
80891;SDS011;70343;51.530;5.050;2023-12-28T02:38:37;4.93;;;2.20;;
80891;SDS011;70343;51.530;5.050;2023-12-28T02:41:04;2.78;;;1.95;;
80891;SDS011;70343;51.530;5.050;2023-12-28T02:43:31;2.90;;;2.28;;
80891;SDS011;70343;51.530;5.050;2023-12-28T02:45:58;5.95;;;2.92;;
80891;SDS011;70343;51.530;5.050;2023-12-28T02:48:23;4.32;;;2.65;;
80891;SDS011;70343;51.530;5.050;2023-12-28T02:50:51;5.32;;;2.13;;
80891;SDS011;70343;51.530;5.050;2023-12-28T02:53:17;5.28;;;2.17;;
80891;SDS011;70343;51.530;5.050;2023-12-28T02:55:42;4.75;;;2.75;;
80891;SDS011;70343;51.530;5.050;2023-12-28T02:58:08;3.25;;;1.98;;
80891;SDS011;70343;51.530;5.050;2023-12-28T03:00:33;4.38;;;2.38;;
80891;SDS011;70343;51.530;5.050;2023-12-28T03:02:59;4.75;;;2.22;;
80891;SDS011;70343;51.530;5.050;2023-12-28T03:05:26;4.68;;;2.65;;
80891;SDS011;70343;51.530;5.050;2023-12-28T03:07:51;3.70;;;1.65;;
80891;SDS011;70343;51.530;5.050;2023-12-28T03:10:17;4.20;;;2.10;;
80891;SDS011;70343;51.530;5.050;2023-12-28T03:12:43;4.82;;;1.63;;
80891;SDS011;70343;51.530;5.050;2023-12-28T03:15:09;3.40;;;1.70;;
80891;SDS011;70343;51.530;5.050;2023-12-28T03:17:35;4.00;;;2.28;;
80891;SDS011;70343;51.530;5.050;2023-12-28T03:20:02;5.38;;;2.40;;
80891;SDS011;70343;51.530;5.050;2023-12-28T03:22:27;2.65;;;1.92;;
80891;SDS011;70343;51.530;5.050;2023-12-28T03:24:53;3.08;;;1.98;;
80891;SDS011;70343;51.530;5.050;2023-12-28T03:27:18;4.10;;;2.15;;
80891;SDS011;70343;51.530;5.050;2023-12-28T03:29:44;5.93;;;1.70;;
80891;SDS011;70343;51.530;5.050;2023-12-28T03:32:10;2.25;;;1.63;;
80891;SDS011;70343;51.530;5.050;2023-12-28T03:34:36;3.15;;;1.30;;
80891;SDS011;70343;51.530;5.050;2023-12-28T03:37:03;8.70;;;2.53;;
80891;SDS011;70343;51.530;5.050;2023-12-28T03:39:28;3.78;;;1.50;;
80891;SDS011;70343;51.530;5.050;2023-12-28T03:41:54;7.80;;;1.77;;
80891;SDS011;70343;51.530;5.050;2023-12-28T03:44:20;4.80;;;1.52;;
80891;SDS011;70343;51.530;5.050;2023-12-28T03:46:49;5.00;;;1.85;;
80891;SDS011;70343;51.530;5.050;2023-12-28T03:49:19;2.78;;;1.60;;
80891;SDS011;70343;51.530;5.050;2023-12-28T03:51:45;5.05;;;2.33;;
80891;SDS011;70343;51.530;5.050;2023-12-28T03:54:12;3.40;;;1.88;;
80891;SDS011;70343;51.530;5.050;2023-12-28T03:56:41;3.05;;;1.20;;
80891;SDS011;70343;51.530;5.050;2023-12-28T03:59:08;2.20;;;1.50;;
80891;SDS011;70343;51.530;5.050;2023-12-28T04:01:34;5.47;;;1.88;;
80891;SDS011;70343;51.530;5.050;2023-12-28T04:04:00;4.00;;;1.40;;
80891;SDS011;70343;51.530;5.050;2023-12-28T04:06:26;6.10;;;1.65;;
80891;SDS011;70343;51.530;5.050;2023-12-28T04:08:52;5.65;;;1.73;;
80891;SDS011;70343;51.530;5.050;2023-12-28T04:11:17;5.88;;;1.70;;
80891;SDS011;70343;51.530;5.050;2023-12-28T04:13:43;7.63;;;2.03;;
80891;SDS011;70343;51.530;5.050;2023-12-28T04:16:12;5.38;;;1.52;;
80891;SDS011;70343;51.530;5.050;2023-12-28T04:18:38;2.20;;;1.27;;
80891;SDS011;70343;51.530;5.050;2023-12-28T04:21:07;7.30;;;1.75;;
80891;SDS011;70343;51.530;5.050;2023-12-28T04:23:34;3.92;;;1.48;;
80891;SDS011;70343;51.530;5.050;2023-12-28T04:25:59;3.28;;;1.50;;
80891;SDS011;70343;51.530;5.050;2023-12-28T04:28:25;7.18;;;1.63;;
80891;SDS011;70343;51.530;5.050;2023-12-28T04:30:51;5.32;;;1.55;;
80891;SDS011;70343;51.530;5.050;2023-12-28T04:33:17;6.75;;;2.05;;
80891;SDS011;70343;51.530;5.050;2023-12-28T04:35:47;3.40;;;1.70;;
80891;SDS011;70343;51.530;5.050;2023-12-28T04:38:12;4.22;;;1.38;;
80891;SDS011;70343;51.530;5.050;2023-12-28T04:40:38;3.58;;;1.98;;
80891;SDS011;70343;51.530;5.050;2023-12-28T04:43:03;6.00;;;1.75;;
80891;SDS011;70343;51.530;5.050;2023-12-28T04:45:29;5.00;;;1.52;;
80891;SDS011;70343;51.530;5.050;2023-12-28T04:47:55;4.70;;;1.40;;
80891;SDS011;70343;51.530;5.050;2023-12-28T04:50:20;7.70;;;1.73;;
80891;SDS011;70343;51.530;5.050;2023-12-28T04:52:48;5.97;;;1.23;;
80891;SDS011;70343;51.530;5.050;2023-12-28T04:55:13;3.47;;;1.40;;
80891;SDS011;70343;51.530;5.050;2023-12-28T04:57:40;5.10;;;1.83;;
80891;SDS011;70343;51.530;5.050;2023-12-28T05:00:06;6.03;;;1.90;;
80891;SDS011;70343;51.530;5.050;2023-12-28T05:02:33;6.43;;;1.52;;
80891;SDS011;70343;51.530;5.050;2023-12-28T05:05:00;5.15;;;1.55;;
80891;SDS011;70343;51.530;5.050;2023-12-28T05:07:26;5.65;;;1.73;;
80891;SDS011;70343;51.530;5.050;2023-12-28T05:09:52;4.95;;;1.40;;
80891;SDS011;70343;51.530;5.050;2023-12-28T05:12:17;3.38;;;1.30;;
80891;SDS011;70343;51.530;5.050;2023-12-28T05:14:43;8.70;;;1.95;;
80891;SDS011;70343;51.530;5.050;2023-12-28T05:17:08;7.85;;;1.40;;
80891;SDS011;70343;51.530;5.050;2023-12-28T05:19:34;5.07;;;1.48;;
80891;SDS011;70343;51.530;5.050;2023-12-28T05:22:00;5.68;;;1.67;;
80891;SDS011;70343;51.530;5.050;2023-12-28T05:24:29;3.80;;;1.55;;
80891;SDS011;70343;51.530;5.050;2023-12-28T05:26:55;4.60;;;1.27;;
80891;SDS011;70343;51.530;5.050;2023-12-28T05:29:22;4.05;;;1.63;;
80891;SDS011;70343;51.530;5.050;2023-12-28T05:31:49;2.08;;;1.15;;
80891;SDS011;70343;51.530;5.050;2023-12-28T05:34:14;3.17;;;1.05;;
80891;SDS011;70343;51.530;5.050;2023-12-28T05:36:40;6.95;;;1.88;;
80891;SDS011;70343;51.530;5.050;2023-12-28T05:39:06;5.18;;;1.40;;
80891;SDS011;70343;51.530;5.050;2023-12-28T05:41:34;7.07;;;2.00;;
80891;SDS011;70343;51.530;5.050;2023-12-28T05:44:00;8.43;;;2.53;;
80891;SDS011;70343;51.530;5.050;2023-12-28T05:46:26;10.88;;;2.75;;
80891;SDS011;70343;51.530;5.050;2023-12-28T05:48:52;3.63;;;1.10;;
80891;SDS011;70343;51.530;5.050;2023-12-28T05:51:17;6.78;;;1.38;;
80891;SDS011;70343;51.530;5.050;2023-12-28T05:53:43;5.75;;;1.70;;
80891;SDS011;70343;51.530;5.050;2023-12-28T05:56:09;4.70;;;1.70;;
80891;SDS011;70343;51.530;5.050;2023-12-28T05:58:34;7.85;;;1.40;;
80891;SDS011;70343;51.530;5.050;2023-12-28T06:01:02;9.68;;;1.50;;
80891;SDS011;70343;51.530;5.050;2023-12-28T06:03:30;7.85;;;2.15;;
80891;SDS011;70343;51.530;5.050;2023-12-28T06:05:56;7.20;;;1.60;;
80891;SDS011;70343;51.530;5.050;2023-12-28T06:08:22;4.57;;;1.70;;
80891;SDS011;70343;51.530;5.050;2023-12-28T06:10:47;7.20;;;1.10;;
80891;SDS011;70343;51.530;5.050;2023-12-28T06:13:13;7.03;;;1.30;;
80891;SDS011;70343;51.530;5.050;2023-12-28T06:15:38;8.73;;;1.58;;
80891;SDS011;70343;51.530;5.050;2023-12-28T06:18:04;7.38;;;1.33;;
80891;SDS011;70343;51.530;5.050;2023-12-28T06:20:30;5.28;;;1.45;;
80891;SDS011;70343;51.530;5.050;2023-12-28T06:22:55;9.82;;;1.88;;
80891;SDS011;70343;51.530;5.050;2023-12-28T06:25:21;14.43;;;2.15;;
80891;SDS011;70343;51.530;5.050;2023-12-28T06:27:46;9.25;;;1.77;;
80891;SDS011;70343;51.530;5.050;2023-12-28T06:30:12;10.23;;;2.17;;
80891;SDS011;70343;51.530;5.050;2023-12-28T06:32:38;7.40;;;1.58;;
80891;SDS011;70343;51.530;5.050;2023-12-28T06:35:04;4.50;;;1.30;;
80891;SDS011;70343;51.530;5.050;2023-12-28T06:37:30;8.13;;;1.55;;
80891;SDS011;70343;51.530;5.050;2023-12-28T06:39:56;6.47;;;1.55;;
80891;SDS011;70343;51.530;5.050;2023-12-28T06:42:21;7.03;;;1.55;;
80891;SDS011;70343;51.530;5.050;2023-12-28T06:44:48;7.40;;;1.52;;
80891;SDS011;70343;51.530;5.050;2023-12-28T06:47:13;7.38;;;1.52;;
80891;SDS011;70343;51.530;5.050;2023-12-28T06:49:39;11.25;;;2.13;;
80891;SDS011;70343;51.530;5.050;2023-12-28T06:52:04;10.00;;;1.48;;
80891;SDS011;70343;51.530;5.050;2023-12-28T06:54:30;12.60;;;2.13;;
80891;SDS011;70343;51.530;5.050;2023-12-28T06:56:55;4.60;;;1.40;;
80891;SDS011;70343;51.530;5.050;2023-12-28T06:59:21;10.02;;;1.60;;
80891;SDS011;70343;51.530;5.050;2023-12-28T07:01:47;7.20;;;1.75;;
80891;SDS011;70343;51.530;5.050;2023-12-28T07:04:15;9.30;;;1.48;;
80891;SDS011;70343;51.530;5.050;2023-12-28T07:06:40;12.93;;;2.55;;
80891;SDS011;70343;51.530;5.050;2023-12-28T07:09:06;10.27;;;1.85;;
80891;SDS011;70343;51.530;5.050;2023-12-28T07:11:31;7.32;;;1.35;;
80891;SDS011;70343;51.530;5.050;2023-12-28T07:13:57;9.80;;;1.40;;
80891;SDS011;70343;51.530;5.050;2023-12-28T07:16:26;11.73;;;1.85;;
80891;SDS011;70343;51.530;5.050;2023-12-28T07:18:54;7.90;;;1.58;;
80891;SDS011;70343;51.530;5.050;2023-12-28T07:21:20;5.90;;;1.30;;
80891;SDS011;70343;51.530;5.050;2023-12-28T07:23:45;11.15;;;2.80;;
80891;SDS011;70343;51.530;5.050;2023-12-28T07:26:14;8.38;;;2.35;;
80891;SDS011;70343;51.530;5.050;2023-12-28T07:28:40;9.63;;;1.75;;
80891;SDS011;70343;51.530;5.050;2023-12-28T07:31:10;7.93;;;1.58;;
80891;SDS011;70343;51.530;5.050;2023-12-28T07:33:36;4.43;;;1.05;;
80891;SDS011;70343;51.530;5.050;2023-12-28T07:36:01;8.13;;;1.67;;
80891;SDS011;70343;51.530;5.050;2023-12-28T07:38:28;13.52;;;1.77;;
80891;SDS011;70343;51.530;5.050;2023-12-28T07:40:54;11.23;;;2.15;;
80891;SDS011;70343;51.530;5.050;2023-12-28T07:43:19;11.48;;;1.88;;
80891;SDS011;70343;51.530;5.050;2023-12-28T07:45:45;8.30;;;1.33;;
80891;SDS011;70343;51.530;5.050;2023-12-28T07:48:10;13.25;;;1.83;;
80891;SDS011;70343;51.530;5.050;2023-12-28T07:50:36;3.03;;;1.38;;
80891;SDS011;70343;51.530;5.050;2023-12-28T07:53:02;5.00;;;1.60;;
80891;SDS011;70343;51.530;5.050;2023-12-28T07:55:28;10.93;;;1.92;;
80891;SDS011;70343;51.530;5.050;2023-12-28T07:57:53;8.88;;;2.25;;
80891;SDS011;70343;51.530;5.050;2023-12-28T08:00:20;8.90;;;1.23;;
80891;SDS011;70343;51.530;5.050;2023-12-28T08:02:45;5.63;;;1.83;;
80891;SDS011;70343;51.530;5.050;2023-12-28T08:05:11;11.75;;;2.38;;
80891;SDS011;70343;51.530;5.050;2023-12-28T08:07:36;12.50;;;2.20;;
80891;SDS011;70343;51.530;5.050;2023-12-28T08:10:02;8.10;;;1.60;;
80891;SDS011;70343;51.530;5.050;2023-12-28T08:12:29;6.22;;;1.55;;
80891;SDS011;70343;51.530;5.050;2023-12-28T08:14:54;3.58;;;1.42;;
80891;SDS011;70343;51.530;5.050;2023-12-28T08:17:20;9.70;;;1.67;;
80891;SDS011;70343;51.530;5.050;2023-12-28T08:19:46;7.72;;;1.23;;
80891;SDS011;70343;51.530;5.050;2023-12-28T08:22:14;8.45;;;1.35;;
80891;SDS011;70343;51.530;5.050;2023-12-28T08:24:40;6.20;;;1.33;;
80891;SDS011;70343;51.530;5.050;2023-12-28T08:27:06;9.82;;;1.65;;
80891;SDS011;70343;51.530;5.050;2023-12-28T08:29:31;7.00;;;1.48;;
80891;SDS011;70343;51.530;5.050;2023-12-28T08:31:57;9.48;;;1.73;;
80891;SDS011;70343;51.530;5.050;2023-12-28T08:34:22;6.07;;;1.63;;
80891;SDS011;70343;51.530;5.050;2023-12-28T08:36:48;7.30;;;1.67;;
80891;SDS011;70343;51.530;5.050;2023-12-28T08:39:14;5.95;;;1.42;;
80891;SDS011;70343;51.530;5.050;2023-12-28T08:41:39;15.27;;;2.20;;
80891;SDS011;70343;51.530;5.050;2023-12-28T08:44:05;12.48;;;2.20;;
80891;SDS011;70343;51.530;5.050;2023-12-28T08:46:30;9.25;;;1.92;;
80891;SDS011;70343;51.530;5.050;2023-12-28T08:48:58;9.88;;;1.50;;
80891;SDS011;70343;51.530;5.050;2023-12-28T08:51:23;9.60;;;1.63;;
80891;SDS011;70343;51.530;5.050;2023-12-28T08:53:49;7.45;;;1.25;;
80891;SDS011;70343;51.530;5.050;2023-12-28T08:56:16;10.73;;;1.60;;
80891;SDS011;70343;51.530;5.050;2023-12-28T08:58:43;9.68;;;1.92;;
80891;SDS011;70343;51.530;5.050;2023-12-28T09:01:15;5.88;;;1.35;;
80891;SDS011;70343;51.530;5.050;2023-12-28T09:03:43;9.18;;;1.67;;
80891;SDS011;70343;51.530;5.050;2023-12-28T09:06:09;11.98;;;1.58;;
80891;SDS011;70343;51.530;5.050;2023-12-28T09:08:34;8.90;;;1.60;;
80891;SDS011;70343;51.530;5.050;2023-12-28T09:11:00;6.88;;;1.48;;
80891;SDS011;70343;51.530;5.050;2023-12-28T09:13:26;6.70;;;0.85;;
80891;SDS011;70343;51.530;5.050;2023-12-28T09:15:52;14.68;;;2.50;;
80891;SDS011;70343;51.530;5.050;2023-12-28T09:18:19;8.98;;;1.73;;
80891;SDS011;70343;51.530;5.050;2023-12-28T09:20:44;8.93;;;1.75;;
80891;SDS011;70343;51.530;5.050;2023-12-28T09:23:10;9.60;;;1.83;;
80891;SDS011;70343;51.530;5.050;2023-12-28T09:25:36;16.15;;;2.15;;
80891;SDS011;70343;51.530;5.050;2023-12-28T09:28:04;11.50;;;1.85;;
80891;SDS011;70343;51.530;5.050;2023-12-28T09:30:30;8.35;;;1.98;;
80891;SDS011;70343;51.530;5.050;2023-12-28T09:32:56;9.52;;;1.10;;
80891;SDS011;70343;51.530;5.050;2023-12-28T09:35:21;7.22;;;1.85;;
80891;SDS011;70343;51.530;5.050;2023-12-28T09:37:47;10.05;;;1.85;;
80891;SDS011;70343;51.530;5.050;2023-12-28T09:40:14;8.70;;;1.70;;
80891;SDS011;70343;51.530;5.050;2023-12-28T09:42:43;10.05;;;1.70;;
80891;SDS011;70343;51.530;5.050;2023-12-28T09:45:24;9.88;;;1.20;;
80891;SDS011;70343;51.530;5.050;2023-12-28T09:47:50;14.95;;;2.22;;
80891;SDS011;70343;51.530;5.050;2023-12-28T09:50:17;5.07;;;1.00;;
80891;SDS011;70343;51.530;5.050;2023-12-28T09:52:44;9.23;;;1.58;;
80891;SDS011;70343;51.530;5.050;2023-12-28T09:55:10;7.95;;;1.75;;
80891;SDS011;70343;51.530;5.050;2023-12-28T09:57:36;11.43;;;1.55;;
80891;SDS011;70343;51.530;5.050;2023-12-28T10:00:03;7.47;;;1.38;;
80891;SDS011;70343;51.530;5.050;2023-12-28T10:02:37;7.18;;;2.10;;
80891;SDS011;70343;51.530;5.050;2023-12-28T10:05:05;7.10;;;1.20;;
80891;SDS011;70343;51.530;5.050;2023-12-28T10:07:31;7.28;;;1.48;;
80891;SDS011;70343;51.530;5.050;2023-12-28T10:09:57;10.38;;;1.80;;
80891;SDS011;70343;51.530;5.050;2023-12-28T10:12:22;10.63;;;1.92;;
80891;SDS011;70343;51.530;5.050;2023-12-28T10:14:50;10.43;;;1.60;;
80891;SDS011;70343;51.530;5.050;2023-12-28T10:17:16;11.60;;;1.80;;
80891;SDS011;70343;51.530;5.050;2023-12-28T10:19:42;10.00;;;1.73;;
80891;SDS011;70343;51.530;5.050;2023-12-28T10:22:13;11.82;;;3.22;;
80891;SDS011;70343;51.530;5.050;2023-12-28T10:24:48;10.88;;;1.95;;
80891;SDS011;70343;51.530;5.050;2023-12-28T10:27:14;9.05;;;1.88;;
80891;SDS011;70343;51.530;5.050;2023-12-28T10:29:40;15.63;;;2.08;;
80891;SDS011;70343;51.530;5.050;2023-12-28T10:32:05;13.15;;;1.90;;
80891;SDS011;70343;51.530;5.050;2023-12-28T10:34:31;13.98;;;3.13;;
80891;SDS011;70343;51.530;5.050;2023-12-28T10:36:59;10.95;;;2.35;;
80891;SDS011;70343;51.530;5.050;2023-12-28T10:39:25;7.28;;;1.75;;
80891;SDS011;70343;51.530;5.050;2023-12-28T10:41:51;8.55;;;2.13;;
80891;SDS011;70343;51.530;5.050;2023-12-28T10:44:20;12.43;;;1.83;;
80891;SDS011;70343;51.530;5.050;2023-12-28T10:46:49;11.55;;;2.45;;
80891;SDS011;70343;51.530;5.050;2023-12-28T10:49:20;12.00;;;2.42;;
80891;SDS011;70343;51.530;5.050;2023-12-28T10:51:51;13.57;;;1.88;;
80891;SDS011;70343;51.530;5.050;2023-12-28T11:00:20;7.15;;;1.38;;
80891;SDS011;70343;51.530;5.050;2023-12-28T11:02:47;6.88;;;1.40;;
80891;SDS011;70343;51.530;5.050;2023-12-28T11:05:17;11.35;;;2.03;;
80891;SDS011;70343;51.530;5.050;2023-12-28T11:07:45;10.50;;;1.27;;
80891;SDS011;70343;51.530;5.050;2023-12-28T11:10:13;10.63;;;1.75;;
80891;SDS011;70343;51.530;5.050;2023-12-28T11:12:39;13.27;;;2.83;;
80891;SDS011;70343;51.530;5.050;2023-12-28T11:15:06;11.77;;;1.88;;
80891;SDS011;70343;51.530;5.050;2023-12-28T11:17:33;9.00;;;2.25;;
80891;SDS011;70343;51.530;5.050;2023-12-28T11:20:01;10.98;;;2.00;;
80891;SDS011;70343;51.530;5.050;2023-12-28T11:22:30;7.07;;;1.90;;
80891;SDS011;70343;51.530;5.050;2023-12-28T11:24:56;9.82;;;2.25;;
80891;SDS011;70343;51.530;5.050;2023-12-28T11:27:23;9.07;;;1.52;;
80891;SDS011;70343;51.530;5.050;2023-12-28T11:29:49;10.23;;;1.10;;
80891;SDS011;70343;51.530;5.050;2023-12-28T11:32:14;10.13;;;2.33;;
80891;SDS011;70343;51.530;5.050;2023-12-28T11:34:40;9.32;;;1.65;;
80891;SDS011;70343;51.530;5.050;2023-12-28T11:37:07;10.80;;;2.42;;
80891;SDS011;70343;51.530;5.050;2023-12-28T11:39:37;12.55;;;2.15;;
80891;SDS011;70343;51.530;5.050;2023-12-28T11:42:09;10.27;;;2.08;;
80891;SDS011;70343;51.530;5.050;2023-12-28T11:44:38;12.35;;;2.97;;
80891;SDS011;70343;51.530;5.050;2023-12-28T11:47:11;13.15;;;2.58;;
80891;SDS011;70343;51.530;5.050;2023-12-28T11:49:37;18.45;;;2.97;;
80891;SDS011;70343;51.530;5.050;2023-12-28T11:52:06;12.93;;;2.67;;
80891;SDS011;70343;51.530;5.050;2023-12-28T11:54:32;11.52;;;1.75;;
80891;SDS011;70343;51.530;5.050;2023-12-28T11:56:58;10.00;;;1.73;;
80891;SDS011;70343;51.530;5.050;2023-12-28T11:59:24;12.70;;;2.20;;
80891;SDS011;70343;51.530;5.050;2023-12-28T12:01:50;9.43;;;1.90;;
80891;SDS011;70343;51.530;5.050;2023-12-28T12:04:17;10.95;;;1.70;;
80891;SDS011;70343;51.530;5.050;2023-12-28T12:06:44;7.75;;;1.85;;
80891;SDS011;70343;51.530;5.050;2023-12-28T12:09:12;10.38;;;2.08;;
80891;SDS011;70343;51.530;5.050;2023-12-28T12:11:38;10.43;;;2.17;;
80891;SDS011;70343;51.530;5.050;2023-12-28T12:14:08;6.93;;;1.60;;
80891;SDS011;70343;51.530;5.050;2023-12-28T12:16:36;14.73;;;3.17;;
80891;SDS011;70343;51.530;5.050;2023-12-28T12:19:06;12.85;;;1.77;;
80891;SDS011;70343;51.530;5.050;2023-12-28T12:21:33;8.02;;;1.50;;
80891;SDS011;70343;51.530;5.050;2023-12-28T12:24:00;11.90;;;3.08;;
80891;SDS011;70343;51.530;5.050;2023-12-28T12:26:28;8.70;;;1.52;;
80891;SDS011;70343;51.530;5.050;2023-12-28T12:28:55;5.80;;;1.50;;
80891;SDS011;70343;51.530;5.050;2023-12-28T12:31:21;13.45;;;2.22;;
80891;SDS011;70343;51.530;5.050;2023-12-28T12:33:47;8.20;;;1.65;;
80891;SDS011;70343;51.530;5.050;2023-12-28T12:36:13;11.18;;;1.88;;
80891;SDS011;70343;51.530;5.050;2023-12-28T12:38:38;10.00;;;1.25;;
80891;SDS011;70343;51.530;5.050;2023-12-28T12:41:04;12.70;;;1.58;;
80891;SDS011;70343;51.530;5.050;2023-12-28T12:43:30;13.63;;;2.60;;
80891;SDS011;70343;51.530;5.050;2023-12-28T12:45:56;12.80;;;1.80;;
80891;SDS011;70343;51.530;5.050;2023-12-28T12:48:22;7.93;;;1.65;;
80891;SDS011;70343;51.530;5.050;2023-12-28T12:50:47;12.50;;;2.25;;
80891;SDS011;70343;51.530;5.050;2023-12-28T12:53:13;11.35;;;1.92;;
80891;SDS011;70343;51.530;5.050;2023-12-28T12:55:39;7.65;;;1.65;;
80891;SDS011;70343;51.530;5.050;2023-12-28T12:58:05;10.18;;;2.00;;
80891;SDS011;70343;51.530;5.050;2023-12-28T13:00:30;8.65;;;1.77;;
80891;SDS011;70343;51.530;5.050;2023-12-28T13:03:01;4.72;;;2.15;;
80891;SDS011;70343;51.530;5.050;2023-12-28T13:05:28;7.78;;;1.30;;
80891;SDS011;70343;51.530;5.050;2023-12-28T13:07:54;7.82;;;1.85;;
80891;SDS011;70343;51.530;5.050;2023-12-28T13:10:20;14.30;;;2.00;;
80891;SDS011;70343;51.530;5.050;2023-12-28T13:12:46;12.20;;;2.00;;
80891;SDS011;70343;51.530;5.050;2023-12-28T13:15:12;12.23;;;2.05;;
80891;SDS011;70343;51.530;5.050;2023-12-28T13:17:40;10.38;;;1.80;;
80891;SDS011;70343;51.530;5.050;2023-12-28T13:20:05;10.10;;;1.92;;
80891;SDS011;70343;51.530;5.050;2023-12-28T13:22:32;7.57;;;1.60;;
80891;SDS011;70343;51.530;5.050;2023-12-28T13:24:59;13.32;;;2.45;;
80891;SDS011;70343;51.530;5.050;2023-12-28T13:27:25;8.98;;;2.60;;
80891;SDS011;70343;51.530;5.050;2023-12-28T13:29:50;6.57;;;1.75;;
80891;SDS011;70343;51.530;5.050;2023-12-28T13:32:16;12.30;;;2.05;;
80891;SDS011;70343;51.530;5.050;2023-12-28T13:34:41;7.32;;;1.50;;
80891;SDS011;70343;51.530;5.050;2023-12-28T13:37:07;9.35;;;1.85;;
80891;SDS011;70343;51.530;5.050;2023-12-28T13:39:34;10.20;;;2.22;;
80891;SDS011;70343;51.530;5.050;2023-12-28T13:42:05;7.75;;;1.85;;
80891;SDS011;70343;51.530;5.050;2023-12-28T13:46:58;9.32;;;1.90;;
80891;SDS011;70343;51.530;5.050;2023-12-28T13:49:24;13.95;;;1.70;;
80891;SDS011;70343;51.530;5.050;2023-12-28T13:51:51;10.73;;;1.85;;
80891;SDS011;70343;51.530;5.050;2023-12-28T13:54:17;12.43;;;2.33;;
80891;SDS011;70343;51.530;5.050;2023-12-28T13:56:44;5.82;;;0.90;;
80891;SDS011;70343;51.530;5.050;2023-12-28T13:59:10;7.90;;;1.52;;
80891;SDS011;70343;51.530;5.050;2023-12-28T14:01:36;9.23;;;1.63;;
80891;SDS011;70343;51.530;5.050;2023-12-28T14:04:02;11.63;;;2.13;;
80891;SDS011;70343;51.530;5.050;2023-12-28T14:06:28;13.57;;;2.55;;
80891;SDS011;70343;51.530;5.050;2023-12-28T14:08:54;11.02;;;1.85;;
80891;SDS011;70343;51.530;5.050;2023-12-28T14:11:20;14.50;;;1.77;;
80891;SDS011;70343;51.530;5.050;2023-12-28T14:13:46;6.75;;;1.48;;
80891;SDS011;70343;51.530;5.050;2023-12-28T14:16:13;9.05;;;1.15;;
80891;SDS011;70343;51.530;5.050;2023-12-28T14:18:38;8.13;;;1.30;;
80891;SDS011;70343;51.530;5.050;2023-12-28T14:21:07;8.15;;;1.75;;
80891;SDS011;70343;51.530;5.050;2023-12-28T14:23:34;9.43;;;1.58;;
80891;SDS011;70343;51.530;5.050;2023-12-28T14:26:13;7.03;;;1.85;;
80891;SDS011;70343;51.530;5.050;2023-12-28T14:28:43;12.95;;;1.70;;
80891;SDS011;70343;51.530;5.050;2023-12-28T14:31:10;6.25;;;1.48;;
80891;SDS011;70343;51.530;5.050;2023-12-28T14:33:37;8.13;;;1.70;;
80891;SDS011;70343;51.530;5.050;2023-12-28T14:38:49;9.98;;;2.25;;
80891;SDS011;70343;51.530;5.050;2023-12-28T14:41:14;8.32;;;1.50;;
80891;SDS011;70343;51.530;5.050;2023-12-28T14:43:40;11.20;;;1.95;;
80891;SDS011;70343;51.530;5.050;2023-12-28T14:46:05;8.18;;;1.75;;
80891;SDS011;70343;51.530;5.050;2023-12-28T14:48:31;13.30;;;1.95;;